Terminal Aerodrome Forecast
Issued by NWS

Home | Current Version | Previous Version | Text Only | Print | Product List | Glossary On
Versions: 1 2 3 4 5 6 7 8 9 10 11 12
000
FTUS44 KJAN 301700 RRA
TAFGTR
TAF
KGTR 301755Z 3018/3118 17010KT P6SM VCTS BKN035CB
      TEMPO 3018/3020 2SM TSRA BR OVC025CB
     FM302000 17007KT P6SM SHRA VCTS SCT025 BKN035CB
      TEMPO 3022/3024 2SM TSRA OVC015CB
     FM310300 16005KT 6SM BR SCT020 BKN050
     FM310600 16005KT 4SM BR OVC015
     FM311500 18010KT P6SM SCT015 BKN050=

USA.gov is the U.S. government's official web portal to all federal, state and local government web resources and services.